createdAt,value
2023-02-17T00:03:23.045Z,718.97
2023-02-17T00:08:25.033Z,716.67
2023-02-17T00:13:27.060Z,722.03
2023-02-17T00:18:29.024Z,719.70
2023-02-17T00:23:30.876Z,715.60
2023-02-17T00:28:32.774Z,729.53
2023-02-17T00:33:34.903Z,720.47
2023-02-17T00:38:37.031Z,722.00
2023-02-17T00:43:38.971Z,719.53
2023-02-17T00:48:41.506Z,717.90
2023-02-17T00:53:43.810Z,719.83
2023-02-17T00:58:46.386Z,719.93
2023-02-17T01:03:48.443Z,723.17
2023-02-17T01:08:50.670Z,729.43
2023-02-17T01:13:53.243Z,723.17
2023-02-17T01:18:55.563Z,720.13
2023-02-17T01:24:00.021Z,725.37
2023-02-17T01:29:05.464Z,721.37
2023-02-17T01:34:07.465Z,722.23
2023-02-17T01:39:14.931Z,719.40
2023-02-17T01:44:20.650Z,724.00
2023-02-17T01:49:31.524Z,722.27
2023-02-17T01:54:38.704Z,726.27
2023-02-17T01:59:45.099Z,720.60
2023-02-17T02:04:51.291Z,723.03
2023-02-17T02:09:56.415Z,725.43
2023-02-17T02:15:02.055Z,718.83
2023-02-17T02:20:41.481Z,723.20
2023-02-17T02:26:13.826Z,725.97
2023-02-17T02:31:53.482Z,725.03
2023-02-17T02:37:07.815Z,723.60
2023-02-17T02:42:14.778Z,724.10
2023-02-17T02:47:41.838Z,721.40
2023-02-17T02:52:59.100Z,721.50
2023-02-17T02:58:17.828Z,726.58
2023-02-17T03:03:33.871Z,723.17
2023-02-17T03:08:53.441Z,720.27
2023-02-17T03:13:55.408Z,720.80
2023-02-17T03:18:57.983Z,718.37
2023-02-17T03:24:00.981Z,722.63
2023-02-17T03:29:03.523Z,734.83
2023-02-17T03:34:05.776Z,729.50
2023-02-17T03:39:07.740Z,728.07
2023-02-17T03:44:09.954Z,728.83
2023-02-17T03:49:13.077Z,717.47
2023-02-17T03:54:15.061Z,726.10
2023-02-17T03:59:17.036Z,722.47
2023-02-17T04:04:19.167Z,721.70
2023-02-17T04:09:21.128Z,725.40
2023-02-17T04:14:23.027Z,726.70
2023-02-17T04:19:24.865Z,724.85
2023-02-17T04:24:26.844Z,727.17
2023-02-17T04:29:28.722Z,732.55
2023-02-17T04:34:30.760Z,732.92
2023-02-17T04:39:32.708Z,735.88
2023-02-17T04:44:34.596Z,727.63
2023-02-17T04:49:36.557Z,730.53
2023-02-17T04:54:38.483Z,732.20
2023-02-17T04:59:40.442Z,737.38
2023-02-17T05:04:44.532Z,734.55
2023-02-17T05:09:47.770Z,730.35
2023-02-17T05:14:49.690Z,734.75
2023-02-17T05:19:51.564Z,732.33
2023-02-17T05:24:53.798Z,731.15
2023-02-17T05:29:55.788Z,732.45
2023-02-17T05:34:57.830Z,730.70
2023-02-17T05:39:59.728Z,730.47
2023-02-17T05:45:01.701Z,729.03
2023-02-17T05:50:05.516Z,728.50
2023-02-17T05:55:07.824Z,727.58
2023-02-17T06:00:10.691Z,734.05
2023-02-17T06:05:15.772Z,730.13
2023-02-17T06:10:17.819Z,738.72
2023-02-17T06:15:19.770Z,730.53
2023-02-17T06:20:21.932Z,722.88
2023-02-17T06:25:23.771Z,727.95
2023-02-17T06:30:25.808Z,726.03
2023-02-17T06:35:27.887Z,725.05
2023-02-17T06:40:29.909Z,729.58
2023-02-17T06:45:31.862Z,728.22
2023-02-17T06:50:33.872Z,730.63
2023-02-17T06:55:37.300Z,729.65
2023-02-17T07:00:39.503Z,735.03
2023-02-17T07:05:41.505Z,731.50
2023-02-17T07:10:43.462Z,731.95
2023-02-17T07:15:45.396Z,730.03
2023-02-17T07:20:48.519Z,728.65
2023-02-17T07:25:50.579Z,732.53
2023-02-17T07:30:52.525Z,729.45
2023-02-17T07:35:54.479Z,732.63
2023-02-17T07:40:56.343Z,737.80
2023-02-17T07:45:59.395Z,730.97
2023-02-17T07:51:13.495Z,731.30
2023-02-17T07:56:17.919Z,725.47
2023-02-17T08:01:23.503Z,729.47
2023-02-17T08:06:26.877Z,727.75
2023-02-17T08:11:49.828Z,733.53
2023-02-17T08:16:52.107Z,726.53
2023-02-17T08:21:54.516Z,736.95
2023-02-17T08:26:56.513Z,738.50
2023-02-17T08:31:58.633Z,739.47
2023-02-17T08:37:02.085Z,739.15
2023-02-17T08:42:05.337Z,740.83
2023-02-17T08:47:07.949Z,740.92
2023-02-17T08:52:09.878Z,742.40
2023-02-17T08:57:11.945Z,735.67
2023-02-17T09:02:15.362Z,745.40
2023-02-17T09:07:17.323Z,742.27
2023-02-17T09:12:19.526Z,748.10
2023-02-17T09:17:21.467Z,753.77
2023-02-17T09:22:31.538Z,751.70
2023-02-17T09:27:34.316Z,750.27
2023-02-17T09:32:36.374Z,753.53
2023-02-17T09:37:38.595Z,763.20
2023-02-17T09:42:41.082Z,759.93
2023-02-17T09:48:08.619Z,748.20
2023-02-17T09:53:22.391Z,754.13
2023-02-17T09:58:29.643Z,743.77
2023-02-17T10:03:54.164Z,747.42
2023-02-17T10:09:14.386Z,743.97
2023-02-17T10:14:22.030Z,743.00
2023-02-17T10:24:31.448Z,745.03
2023-02-17T10:29:47.169Z,745.03
2023-02-17T10:34:52.113Z,742.43
2023-02-17T10:39:57.147Z,744.73
2023-02-17T10:45:05.909Z,750.63
2023-02-17T10:50:19.082Z,756.63
2023-02-17T10:55:47.442Z,754.93
2023-02-17T11:00:56.510Z,756.97
2023-02-17T11:06:04.563Z,755.10
2023-02-17T11:11:18.945Z,746.17
2023-02-17T11:16:42.257Z,739.57
2023-02-17T11:21:44.398Z,739.57
2023-02-17T11:27:08.087Z,758.73
2023-02-17T11:32:13.902Z,753.07
2023-02-17T11:37:23.763Z,747.43
2023-02-17T11:42:31.631Z,743.73
2023-02-17T11:47:46.854Z,745.90
2023-02-17T11:53:12.219Z,746.47
2023-02-17T11:58:22.076Z,744.30
2023-02-17T12:03:41.458Z,744.03
2023-02-17T12:09:04.942Z,744.40
2023-02-17T12:14:15.314Z,743.70
2023-02-17T12:19:38.650Z,745.33
2023-02-17T12:24:51.597Z,743.63
2023-02-17T12:30:00.508Z,749.40
2023-02-17T12:35:18.722Z,773.10
2023-02-17T12:40:47.663Z,767.57
2023-02-17T12:45:52.541Z,753.33
2023-02-17T12:51:30.274Z,749.67
2023-02-17T12:56:48.656Z,758.60
2023-02-17T13:02:01.880Z,754.80
2023-02-17T13:07:03.781Z,763.90
2023-02-17T13:12:17.575Z,773.27
2023-02-17T13:17:40.671Z,746.27
2023-02-17T13:22:46.187Z,767.40
2023-02-17T13:27:48.114Z,768.63
2023-02-17T13:33:03.919Z,757.47
2023-02-17T13:38:05.850Z,757.92
2023-02-17T13:43:18.453Z,764.42
2023-02-17T13:48:25.548Z,760.28
2023-02-17T13:53:39.354Z,745.50
2023-02-17T13:58:42.399Z,757.15
2023-02-17T14:03:52.974Z,753.28
2023-02-17T14:08:54.965Z,748.83
2023-02-17T14:13:59.191Z,754.05
2023-02-17T14:19:08.436Z,752.50
2023-02-17T14:24:34.839Z,750.95
2023-02-17T14:29:48.420Z,756.65
2023-02-17T14:34:50.406Z,756.58
2023-02-17T14:39:52.260Z,751.75
2023-02-17T14:44:54.131Z,755.30
2023-02-17T14:49:56.074Z,762.53
2023-02-17T14:54:59.944Z,765.63
2023-02-17T15:00:01.932Z,762.30
2023-02-17T15:05:04.141Z,767.65
2023-02-17T15:10:21.870Z,771.88
2023-02-17T15:15:23.945Z,768.35
2023-02-17T15:20:25.992Z,765.38
2023-02-17T15:25:36.032Z,763.65
2023-02-17T15:30:37.975Z,763.58
2023-02-17T15:35:41.155Z,768.05
2023-02-17T15:40:43.031Z,769.22
2023-02-17T15:45:46.548Z,770.72
2023-02-17T15:50:48.473Z,759.97
2023-02-17T15:55:51.397Z,762.65
2023-02-17T16:00:56.406Z,755.55
2023-02-17T16:05:58.321Z,763.70
2023-02-17T16:11:00.231Z,754.38
2023-02-17T16:16:02.210Z,760.35
2023-02-17T16:21:04.228Z,767.90
2023-02-17T16:26:15.534Z,766.53
2023-02-17T16:31:17.727Z,757.30
2023-02-17T16:36:21.070Z,752.55
2023-02-17T16:41:22.971Z,761.47
2023-02-17T16:46:30.244Z,766.00
2023-02-17T16:51:32.092Z,757.60
2023-02-17T16:56:43.100Z,758.47
2023-02-17T17:01:46.354Z,755.72
2023-02-17T17:06:51.185Z,754.53
2023-02-17T17:11:53.157Z,758.03
2023-02-17T17:16:58.298Z,748.67
2023-02-17T17:22:00.211Z,752.92
2023-02-17T17:27:02.154Z,753.67
2023-02-17T17:32:04.192Z,742.95
2023-02-17T17:37:06.257Z,748.40
2023-02-17T17:42:10.800Z,753.70
2023-02-17T17:47:24.752Z,749.72
2023-02-17T17:52:31.595Z,757.95
2023-02-17T17:57:33.525Z,751.35
2023-02-17T18:02:35.437Z,753.83
2023-02-17T18:07:38.582Z,759.63
2023-02-17T18:12:44.262Z,748.40
2023-02-17T18:17:47.711Z,752.45
2023-02-17T18:22:49.612Z,753.08
2023-02-17T18:27:51.505Z,754.70
2023-02-17T18:32:53.835Z,760.72
2023-02-17T18:37:55.765Z,753.85
2023-02-17T18:42:57.850Z,757.80
2023-02-17T18:48:00.027Z,761.92
2023-02-17T18:53:04.244Z,761.38
2023-02-17T18:58:07.187Z,754.22
2023-02-17T19:03:09.238Z,756.40
2023-02-17T19:08:11.157Z,760.90
2023-02-17T19:13:13.192Z,760.88
2023-02-17T19:18:15.241Z,753.90
2023-02-17T19:23:17.151Z,759.63
2023-02-17T19:28:19.100Z,759.60
2023-02-17T19:33:20.960Z,752.70
2023-02-17T19:38:22.838Z,760.53
2023-02-17T19:43:25.460Z,761.55
2023-02-17T19:48:27.602Z,750.28
2023-02-17T19:53:31.232Z,752.67
2023-02-17T19:58:33.127Z,756.45
2023-02-17T20:03:35.158Z,750.85
2023-02-17T20:08:37.863Z,752.20
2023-02-17T20:13:45.989Z,752.22
2023-02-17T20:18:49.991Z,754.22
2023-02-17T20:23:52.610Z,752.53
2023-02-17T20:28:55.696Z,763.55
2023-02-17T20:33:57.911Z,753.90
2023-02-17T20:39:00.455Z,752.22
2023-02-17T20:44:04.170Z,758.53
2023-02-17T20:49:06.108Z,759.67
2023-02-17T20:54:08.156Z,760.05
2023-02-17T20:59:13.079Z,752.13
2023-02-17T21:04:15.350Z,755.65
2023-02-17T21:09:18.697Z,758.75
2023-02-17T21:14:20.514Z,767.72
2023-02-17T21:19:22.690Z,778.63
2023-02-17T21:24:24.619Z,761.70
2023-02-17T21:29:26.453Z,759.95
2023-02-17T21:34:28.439Z,756.35
2023-02-17T21:39:30.623Z,756.40
2023-02-17T21:44:50.932Z,747.00
2023-02-17T21:49:54.492Z,755.80
2023-02-17T21:54:56.368Z,752.95
2023-02-17T21:59:58.260Z,768.28
2023-02-17T22:05:00.142Z,754.97
2023-02-17T22:10:03.596Z,751.00
2023-02-17T22:15:06.072Z,756.17
2023-02-17T22:20:08.708Z,759.25
2023-02-17T22:25:10.603Z,756.58
2023-02-17T22:30:12.875Z,769.10
2023-02-17T22:35:15.104Z,756.40
2023-02-17T22:40:17.154Z,771.88
2023-02-17T22:45:19.057Z,757.33
2023-02-17T22:50:20.900Z,752.42
2023-02-17T22:55:22.851Z,756.10
2023-02-17T23:00:25.028Z,756.28
2023-02-17T23:05:26.952Z,759.40
2023-02-17T23:10:28.821Z,760.90
2023-02-17T23:15:39.593Z,764.25
2023-02-17T23:20:45.117Z,759.17
2023-02-17T23:25:54.130Z,752.83
2023-02-17T23:30:56.192Z,766.95
2023-02-17T23:35:58.270Z,758.90
2023-02-17T23:41:01.441Z,762.35
2023-02-17T23:46:03.522Z,763.20
2023-02-17T23:51:05.919Z,760.33
2023-02-17T23:56:12.446Z,760.47
